sensor_id;sensor_type;location;lat;lon;timestamp;temperature;humidity
37158;DHT22;23050;51.776;22.638;2023-02-28T00:00:19;-0.70;1.00
37158;DHT22;23050;51.776;22.638;2023-02-28T00:02:46;-0.70;1.00
37158;DHT22;23050;51.776;22.638;2023-02-28T00:05:13;-0.70;1.00
37158;DHT22;23050;51.776;22.638;2023-02-28T00:07:39;-0.80;1.00
37158;DHT22;23050;51.776;22.638;2023-02-28T00:10:06;-0.80;1.00
37158;DHT22;23050;51.776;22.638;2023-02-28T00:12:33;-0.80;1.00
37158;DHT22;23050;51.776;22.638;2023-02-28T00:14:59;-0.80;1.00
37158;DHT22;23050;51.776;22.638;2023-02-28T00:17:25;-0.80;1.00
37158;DHT22;23050;51.776;22.638;2023-02-28T00:19:51;-0.80;1.00
37158;DHT22;23050;51.776;22.638;2023-02-28T00:22:19;-0.80;1.00
37158;DHT22;23050;51.776;22.638;2023-02-28T00:24:45;-0.80;1.00
37158;DHT22;23050;51.776;22.638;2023-02-28T00:27:11;-0.90;1.00
37158;DHT22;23050;51.776;22.638;2023-02-28T00:29:37;-0.90;1.00
37158;DHT22;23050;51.776;22.638;2023-02-28T00:32:03;-0.90;1.00
37158;DHT22;23050;51.776;22.638;2023-02-28T00:34:29;-0.90;1.00
37158;DHT22;23050;51.776;22.638;2023-02-28T00:36:54;-0.90;1.00
37158;DHT22;23050;51.776;22.638;2023-02-28T00:39:20;-0.90;1.00
37158;DHT22;23050;51.776;22.638;2023-02-28T00:41:45;-1.00;1.00
37158;DHT22;23050;51.776;22.638;2023-02-28T00:44:11;-1.00;1.00
37158;DHT22;23050;51.776;22.638;2023-02-28T00:46:37;-1.00;1.00
37158;DHT22;23050;51.776;22.638;2023-02-28T00:49:02;-1.00;1.00
37158;DHT22;23050;51.776;22.638;2023-02-28T00:51:28;-1.10;1.00
37158;DHT22;23050;51.776;22.638;2023-02-28T00:53:54;-1.10;1.00
37158;DHT22;23050;51.776;22.638;2023-02-28T00:56:19;-1.20;1.00
37158;DHT22;23050;51.776;22.638;2023-02-28T00:58:45;-1.20;1.00
37158;DHT22;23050;51.776;22.638;2023-02-28T01:01:10;-1.20;1.00
37158;DHT22;23050;51.776;22.638;2023-02-28T01:03:36;-1.30;1.00
37158;DHT22;23050;51.776;22.638;2023-02-28T01:06:02;-1.20;1.00
37158;DHT22;23050;51.776;22.638;2023-02-28T01:08:27;-1.30;1.00
37158;DHT22;23050;51.776;22.638;2023-02-28T01:10:53;-1.30;1.00
37158;DHT22;23050;51.776;22.638;2023-02-28T01:13:20;-1.30;1.00
37158;DHT22;23050;51.776;22.638;2023-02-28T01:15:49;-1.30;1.00
37158;DHT22;23050;51.776;22.638;2023-02-28T01:18:16;-1.30;1.00
37158;DHT22;23050;51.776;22.638;2023-02-28T01:20:42;-1.30;1.00
37158;DHT22;23050;51.776;22.638;2023-02-28T01:23:08;-1.30;1.00
37158;DHT22;23050;51.776;22.638;2023-02-28T01:25:35;-1.30;1.00
37158;DHT22;23050;51.776;22.638;2023-02-28T01:28:01;-1.30;1.00
37158;DHT22;23050;51.776;22.638;2023-02-28T01:30:27;-1.30;1.00
37158;DHT22;23050;51.776;22.638;2023-02-28T01:32:53;-1.30;1.00
37158;DHT22;23050;51.776;22.638;2023-02-28T01:35:19;-1.40;1.00
37158;DHT22;23050;51.776;22.638;2023-02-28T01:37:45;-1.40;1.00
37158;DHT22;23050;51.776;22.638;2023-02-28T01:40:11;-1.40;1.00
37158;DHT22;23050;51.776;22.638;2023-02-28T01:42:37;-1.50;1.00
37158;DHT22;23050;51.776;22.638;2023-02-28T01:45:19;-1.50;1.00
37158;DHT22;23050;51.776;22.638;2023-02-28T01:47:48;-1.50;1.00
37158;DHT22;23050;51.776;22.638;2023-02-28T01:50:23;-1.50;1.00
37158;DHT22;23050;51.776;22.638;2023-02-28T01:52:50;-1.50;1.00
37158;DHT22;23050;51.776;22.638;2023-02-28T01:55:18;-1.50;1.00
37158;DHT22;23050;51.776;22.638;2023-02-28T01:57:49;-1.50;1.00
37158;DHT22;23050;51.776;22.638;2023-02-28T02:00:19;-1.50;1.00
37158;DHT22;23050;51.776;22.638;2023-02-28T02:02:46;-1.50;1.00
37158;DHT22;23050;51.776;22.638;2023-02-28T02:05:25;-1.50;1.00
37158;DHT22;23050;51.776;22.638;2023-02-28T02:07:54;-1.50;1.00
37158;DHT22;23050;51.776;22.638;2023-02-28T02:10:25;-1.50;1.00
37158;DHT22;23050;51.776;22.638;2023-02-28T02:18:21;-1.50;1.00
37158;DHT22;23050;51.776;22.638;2023-02-28T02:26:58;-1.50;1.00
37158;DHT22;23050;51.776;22.638;2023-02-28T02:38:00;-1.70;1.00
37158;DHT22;23050;51.776;22.638;2023-02-28T02:41:13;-1.80;1.00
37158;DHT22;23050;51.776;22.638;2023-02-28T02:43:53;-1.80;1.00
37158;DHT22;23050;51.776;22.638;2023-02-28T02:46:31;-1.90;1.00
37158;DHT22;23050;51.776;22.638;2023-02-28T02:49:00;-1.90;1.00
37158;DHT22;23050;51.776;22.638;2023-02-28T02:51:27;-2.00;2.00
37158;DHT22;23050;51.776;22.638;2023-02-28T02:54:04;-2.00;3.70
37158;DHT22;23050;51.776;22.638;2023-02-28T02:56:31;-2.00;4.50
37158;DHT22;23050;51.776;22.638;2023-02-28T02:59:06;-2.10;6.40
37158;DHT22;23050;51.776;22.638;2023-02-28T03:01:34;-2.10;11.00
37158;DHT22;23050;51.776;22.638;2023-02-28T03:04:04;-2.20;13.60
37158;DHT22;23050;51.776;22.638;2023-02-28T03:06:30;-2.30;19.20
37158;DHT22;23050;51.776;22.638;2023-02-28T03:08:56;-2.30;23.70
37158;DHT22;23050;51.776;22.638;2023-02-28T03:11:21;-2.40;27.00
37158;DHT22;23050;51.776;22.638;2023-02-28T03:19:47;-2.50;57.30
37158;DHT22;23050;51.776;22.638;2023-02-28T03:22:32;-2.50;57.10
37158;DHT22;23050;51.776;22.638;2023-02-28T03:25:12;-2.60;56.10
37158;DHT22;23050;51.776;22.638;2023-02-28T03:27:44;-2.70;59.40
37158;DHT22;23050;51.776;22.638;2023-02-28T03:30:29;-2.70;72.40
37158;DHT22;23050;51.776;22.638;2023-02-28T03:33:03;-2.70;75.00
37158;DHT22;23050;51.776;22.638;2023-02-28T03:35:37;-2.80;78.20
37158;DHT22;23050;51.776;22.638;2023-02-28T03:38:20;-2.80;80.10
37158;DHT22;23050;51.776;22.638;2023-02-28T03:40:51;-2.70;81.40
37158;DHT22;23050;51.776;22.638;2023-02-28T03:43:26;-2.70;87.50
37158;DHT22;23050;51.776;22.638;2023-02-28T03:45:55;-2.70;91.10
37158;DHT22;23050;51.776;22.638;2023-02-28T03:48:26;-2.70;91.00
37158;DHT22;23050;51.776;22.638;2023-02-28T03:50:55;-2.70;90.50
37158;DHT22;23050;51.776;22.638;2023-02-28T03:53:29;-2.70;90.90
37158;DHT22;23050;51.776;22.638;2023-02-28T03:56:01;-2.70;90.70
37158;DHT22;23050;51.776;22.638;2023-02-28T03:58:41;-2.70;93.30
37158;DHT22;23050;51.776;22.638;2023-02-28T04:01:21;-2.70;94.00
37158;DHT22;23050;51.776;22.638;2023-02-28T04:03:49;-2.60;93.70
37158;DHT22;23050;51.776;22.638;2023-02-28T04:06:20;-2.60;93.50
37158;DHT22;23050;51.776;22.638;2023-02-28T04:08:47;-2.50;94.40
37158;DHT22;23050;51.776;22.638;2023-02-28T04:13:58;-2.50;95.50
37158;DHT22;23050;51.776;22.638;2023-02-28T04:16:24;-2.40;95.20
37158;DHT22;23050;51.776;22.638;2023-02-28T04:18:49;-2.40;95.10
37158;DHT22;23050;51.776;22.638;2023-02-28T04:21:15;-2.40;92.30
37158;DHT22;23050;51.776;22.638;2023-02-28T04:23:40;-2.30;84.20
37158;DHT22;23050;51.776;22.638;2023-02-28T04:26:06;-2.30;83.50
37158;DHT22;23050;51.776;22.638;2023-02-28T04:28:33;-2.30;84.50
37158;DHT22;23050;51.776;22.638;2023-02-28T04:31:04;-2.20;85.90
37158;DHT22;23050;51.776;22.638;2023-02-28T04:33:31;-2.20;88.50
37158;DHT22;23050;51.776;22.638;2023-02-28T04:36:02;-2.20;90.00
37158;DHT22;23050;51.776;22.638;2023-02-28T04:38:30;-2.20;90.00
37158;DHT22;23050;51.776;22.638;2023-02-28T04:40:58;-2.20;90.00
37158;DHT22;23050;51.776;22.638;2023-02-28T04:43:25;-2.20;86.20
37158;DHT22;23050;51.776;22.638;2023-02-28T04:45:50;-2.20;85.40
37158;DHT22;23050;51.776;22.638;2023-02-28T04:48:16;-2.10;57.80
37158;DHT22;23050;51.776;22.638;2023-02-28T04:50:41;-2.00;38.70
37158;DHT22;23050;51.776;22.638;2023-02-28T04:53:07;-2.00;44.50
37158;DHT22;23050;51.776;22.638;2023-02-28T04:55:32;-2.00;52.10
37158;DHT22;23050;51.776;22.638;2023-02-28T04:57:58;-2.10;55.90
37158;DHT22;23050;51.776;22.638;2023-02-28T05:00:24;-2.10;59.70
37158;DHT22;23050;51.776;22.638;2023-02-28T05:02:50;-2.20;53.40
37158;DHT22;23050;51.776;22.638;2023-02-28T05:05:15;-2.20;33.90
37158;DHT22;23050;51.776;22.638;2023-02-28T05:07:43;-2.30;22.90
37158;DHT22;23050;51.776;22.638;2023-02-28T05:10:10;-2.30;19.40
37158;DHT22;23050;51.776;22.638;2023-02-28T05:12:35;-2.40;30.00
37158;DHT22;23050;51.776;22.638;2023-02-28T05:15:01;-2.50;33.90
37158;DHT22;23050;51.776;22.638;2023-02-28T05:17:27;-2.60;39.20
37158;DHT22;23050;51.776;22.638;2023-02-28T05:19:53;-2.70;52.50
37158;DHT22;23050;51.776;22.638;2023-02-28T05:22:19;-2.70;60.60
37158;DHT22;23050;51.776;22.638;2023-02-28T05:24:44;-2.80;63.60
37158;DHT22;23050;51.776;22.638;2023-02-28T05:27:10;-2.90;70.50
37158;DHT22;23050;51.776;22.638;2023-02-28T05:29:36;-3.00;77.10
37158;DHT22;23050;51.776;22.638;2023-02-28T05:32:08;-3.00;80.70
37158;DHT22;23050;51.776;22.638;2023-02-28T05:34:34;-3.10;86.00
37158;DHT22;23050;51.776;22.638;2023-02-28T05:37:01;-3.10;88.90
37158;DHT22;23050;51.776;22.638;2023-02-28T05:39:26;-3.10;90.60
37158;DHT22;23050;51.776;22.638;2023-02-28T05:41:52;-3.10;90.00
37158;DHT22;23050;51.776;22.638;2023-02-28T05:44:17;-3.10;89.60
37158;DHT22;23050;51.776;22.638;2023-02-28T05:46:43;-3.10;91.30
37158;DHT22;23050;51.776;22.638;2023-02-28T05:49:08;-3.10;94.50
37158;DHT22;23050;51.776;22.638;2023-02-28T05:51:34;-3.10;94.30
37158;DHT22;23050;51.776;22.638;2023-02-28T05:54:02;-3.10;93.70
37158;DHT22;23050;51.776;22.638;2023-02-28T05:56:31;-3.00;93.20
37158;DHT22;23050;51.776;22.638;2023-02-28T05:58:59;-2.90;93.90
37158;DHT22;23050;51.776;22.638;2023-02-28T06:04:03;-2.30;96.00
37158;DHT22;23050;51.776;22.638;2023-02-28T06:06:29;-1.80;94.80
37158;DHT22;23050;51.776;22.638;2023-02-28T06:08:55;-1.40;91.90
37158;DHT22;23050;51.776;22.638;2023-02-28T06:11:21;-0.90;90.50
37158;DHT22;23050;51.776;22.638;2023-02-28T06:13:47;-0.30;80.20
37158;DHT22;23050;51.776;22.638;2023-02-28T06:16:13;0.20;62.20
37158;DHT22;23050;51.776;22.638;2023-02-28T06:18:38;0.60;27.30
37158;DHT22;23050;51.776;22.638;2023-02-28T06:21:04;1.30;8.50
37158;DHT22;23050;51.776;22.638;2023-02-28T06:23:30;2.10;1.00
37158;DHT22;23050;51.776;22.638;2023-02-28T06:25:56;2.90;1.00
37158;DHT22;23050;51.776;22.638;2023-02-28T06:28:24;3.30;1.00
37158;DHT22;23050;51.776;22.638;2023-02-28T06:30:50;3.90;1.00
37158;DHT22;23050;51.776;22.638;2023-02-28T06:33:16;4.80;1.00
37158;DHT22;23050;51.776;22.638;2023-02-28T06:35:44;5.80;1.00
37158;DHT22;23050;51.776;22.638;2023-02-28T06:38:11;6.80;1.00
37158;DHT22;23050;51.776;22.638;2023-02-28T06:40:37;7.60;1.00
37158;DHT22;23050;51.776;22.638;2023-02-28T06:43:03;8.30;1.00
37158;DHT22;23050;51.776;22.638;2023-02-28T06:45:29;8.60;1.00
37158;DHT22;23050;51.776;22.638;2023-02-28T06:47:55;8.90;1.00
37158;DHT22;23050;51.776;22.638;2023-02-28T06:50:20;9.40;1.00
37158;DHT22;23050;51.776;22.638;2023-02-28T06:52:46;8.80;1.00
37158;DHT22;23050;51.776;22.638;2023-02-28T06:55:12;8.40;1.00
37158;DHT22;23050;51.776;22.638;2023-02-28T06:57:38;8.40;1.00
37158;DHT22;23050;51.776;22.638;2023-02-28T07:00:07;9.10;1.00
37158;DHT22;23050;51.776;22.638;2023-02-28T07:02:34;9.10;1.00
37158;DHT22;23050;51.776;22.638;2023-02-28T07:05:00;9.70;1.00
37158;DHT22;23050;51.776;22.638;2023-02-28T07:07:25;9.80;1.00
37158;DHT22;23050;51.776;22.638;2023-02-28T07:09:51;9.90;1.00
37158;DHT22;23050;51.776;22.638;2023-02-28T07:12:17;10.20;1.00
37158;DHT22;23050;51.776;22.638;2023-02-28T07:14:42;11.20;1.00
37158;DHT22;23050;51.776;22.638;2023-02-28T07:17:09;11.60;1.00
37158;DHT22;23050;51.776;22.638;2023-02-28T07:19:38;11.90;1.00
37158;DHT22;23050;51.776;22.638;2023-02-28T07:22:04;12.70;1.00
37158;DHT22;23050;51.776;22.638;2023-02-28T07:24:29;12.80;1.00
37158;DHT22;23050;51.776;22.638;2023-02-28T07:26:55;12.90;1.00
37158;DHT22;23050;51.776;22.638;2023-02-28T07:29:21;11.70;1.00
37158;DHT22;23050;51.776;22.638;2023-02-28T07:31:47;11.80;1.00
37158;DHT22;23050;51.776;22.638;2023-02-28T07:34:13;10.90;1.00
37158;DHT22;23050;51.776;22.638;2023-02-28T07:36:39;11.90;1.00
37158;DHT22;23050;51.776;22.638;2023-02-28T07:39:04;12.90;1.00
37158;DHT22;23050;51.776;22.638;2023-02-28T07:41:30;13.00;1.00
37158;DHT22;23050;51.776;22.638;2023-02-28T07:43:59;14.10;1.00
37158;DHT22;23050;51.776;22.638;2023-02-28T07:46:25;14.40;1.00
37158;DHT22;23050;51.776;22.638;2023-02-28T07:48:51;13.80;1.00
37158;DHT22;23050;51.776;22.638;2023-02-28T07:51:18;14.40;1.00
37158;DHT22;23050;51.776;22.638;2023-02-28T07:53:44;14.40;1.00
37158;DHT22;23050;51.776;22.638;2023-02-28T07:56:09;15.20;1.00
37158;DHT22;23050;51.776;22.638;2023-02-28T07:58:36;16.00;1.00
37158;DHT22;23050;51.776;22.638;2023-02-28T08:01:06;15.80;1.00
37158;DHT22;23050;51.776;22.638;2023-02-28T08:03:32;13.80;1.00
37158;DHT22;23050;51.776;22.638;2023-02-28T08:05:58;14.90;1.00
37158;DHT22;23050;51.776;22.638;2023-02-28T08:08:23;15.20;1.00
37158;DHT22;23050;51.776;22.638;2023-02-28T08:10:49;15.80;1.00
37158;DHT22;23050;51.776;22.638;2023-02-28T08:13:14;16.50;1.00
37158;DHT22;23050;51.776;22.638;2023-02-28T08:15:41;15.40;1.00
37158;DHT22;23050;51.776;22.638;2023-02-28T08:18:08;16.50;1.00
37158;DHT22;23050;51.776;22.638;2023-02-28T08:20:33;16.50;1.00
37158;DHT22;23050;51.776;22.638;2023-02-28T08:22:59;17.40;1.00
37158;DHT22;23050;51.776;22.638;2023-02-28T08:25:25;16.20;1.00
37158;DHT22;23050;51.776;22.638;2023-02-28T08:27:52;16.80;1.00
37158;DHT22;23050;51.776;22.638;2023-02-28T08:30:17;16.30;1.00
37158;DHT22;23050;51.776;22.638;2023-02-28T08:32:43;15.70;1.00
37158;DHT22;23050;51.776;22.638;2023-02-28T08:35:09;14.80;1.00
37158;DHT22;23050;51.776;22.638;2023-02-28T08:37:35;14.20;1.00
37158;DHT22;23050;51.776;22.638;2023-02-28T08:40:00;13.70;1.00
37158;DHT22;23050;51.776;22.638;2023-02-28T08:42:26;13.20;1.00
37158;DHT22;23050;51.776;22.638;2023-02-28T08:44:52;12.80;1.00
37158;DHT22;23050;51.776;22.638;2023-02-28T08:47:17;13.90;1.00
37158;DHT22;23050;51.776;22.638;2023-02-28T08:49:43;13.70;1.00
37158;DHT22;23050;51.776;22.638;2023-02-28T08:52:08;14.00;1.00
37158;DHT22;23050;51.776;22.638;2023-02-28T08:54:35;15.30;1.00
37158;DHT22;23050;51.776;22.638;2023-02-28T08:57:02;15.30;1.00
37158;DHT22;23050;51.776;22.638;2023-02-28T08:59:27;14.90;1.00
37158;DHT22;23050;51.776;22.638;2023-02-28T09:01:53;14.40;1.00
37158;DHT22;23050;51.776;22.638;2023-02-28T09:04:19;15.20;1.00
37158;DHT22;23050;51.776;22.638;2023-02-28T09:06:44;16.20;1.00
37158;DHT22;23050;51.776;22.638;2023-02-28T09:09:10;16.90;1.00
37158;DHT22;23050;51.776;22.638;2023-02-28T09:11:36;16.10;1.00
37158;DHT22;23050;51.776;22.638;2023-02-28T09:14:02;16.90;1.00
37158;DHT22;23050;51.776;22.638;2023-02-28T09:16:29;18.00;1.00
37158;DHT22;23050;51.776;22.638;2023-02-28T09:18:56;18.60;1.00
37158;DHT22;23050;51.776;22.638;2023-02-28T09:21:21;17.80;1.00
37158;DHT22;23050;51.776;22.638;2023-02-28T09:23:48;15.40;1.00
37158;DHT22;23050;51.776;22.638;2023-02-28T09:26:21;14.40;1.00
37158;DHT22;23050;51.776;22.638;2023-02-28T09:28:47;12.30;1.00
37158;DHT22;23050;51.776;22.638;2023-02-28T09:31:15;11.90;1.00
37158;DHT22;23050;51.776;22.638;2023-02-28T09:33:42;12.30;1.00
37158;DHT22;23050;51.776;22.638;2023-02-28T09:36:07;12.30;1.00
37158;DHT22;23050;51.776;22.638;2023-02-28T09:38:33;12.00;1.00
37158;DHT22;23050;51.776;22.638;2023-02-28T09:41:01;11.10;1.00
37158;DHT22;23050;51.776;22.638;2023-02-28T09:43:35;12.00;1.00
37158;DHT22;23050;51.776;22.638;2023-02-28T09:46:28;12.80;1.00
37158;DHT22;23050;51.776;22.638;2023-02-28T09:48:55;12.60;1.00
37158;DHT22;23050;51.776;22.638;2023-02-28T09:51:36;12.20;1.00
37158;DHT22;23050;51.776;22.638;2023-02-28T09:54:03;12.40;1.00
37158;DHT22;23050;51.776;22.638;2023-02-28T09:56:37;13.00;1.00
37158;DHT22;23050;51.776;22.638;2023-02-28T10:06:50;10.90;1.00
37158;DHT22;23050;51.776;22.638;2023-02-28T10:09:33;10.50;1.00
37158;DHT22;23050;51.776;22.638;2023-02-28T10:12:04;9.50;1.00
37158;DHT22;23050;51.776;22.638;2023-02-28T10:14:33;8.60;1.00
37158;DHT22;23050;51.776;22.638;2023-02-28T10:17:05;7.70;1.00
37158;DHT22;23050;51.776;22.638;2023-02-28T10:19:56;7.30;1.00
37158;DHT22;23050;51.776;22.638;2023-02-28T10:22:50;7.10;1.00
37158;DHT22;23050;51.776;22.638;2023-02-28T10:25:20;6.60;1.00
37158;DHT22;23050;51.776;22.638;2023-02-28T10:27:46;6.00;1.00
37158;DHT22;23050;51.776;22.638;2023-02-28T10:30:12;7.00;1.00
37158;DHT22;23050;51.776;22.638;2023-02-28T10:32:40;8.10;1.00
37158;DHT22;23050;51.776;22.638;2023-02-28T10:37:49;9.10;1.00
37158;DHT22;23050;51.776;22.638;2023-02-28T10:42:59;7.80;1.00
37158;DHT22;23050;51.776;22.638;2023-02-28T10:45:26;7.70;1.00
37158;DHT22;23050;51.776;22.638;2023-02-28T10:47:56;7.30;1.00
37158;DHT22;23050;51.776;22.638;2023-02-28T10:50:26;7.40;1.00
37158;DHT22;23050;51.776;22.638;2023-02-28T10:52:53;7.60;1.00
37158;DHT22;23050;51.776;22.638;2023-02-28T10:55:28;7.40;1.00
37158;DHT22;23050;51.776;22.638;2023-02-28T10:57:54;7.60;1.00
37158;DHT22;23050;51.776;22.638;2023-02-28T11:00:23;7.90;1.00
37158;DHT22;23050;51.776;22.638;2023-02-28T11:02:51;8.20;1.00
37158;DHT22;23050;51.776;22.638;2023-02-28T11:05:34;8.10;1.00
37158;DHT22;23050;51.776;22.638;2023-02-28T11:08:10;7.10;1.00
37158;DHT22;23050;51.776;22.638;2023-02-28T11:10:36;6.00;1.00
37158;DHT22;23050;51.776;22.638;2023-02-28T11:13:03;5.20;1.00
37158;DHT22;23050;51.776;22.638;2023-02-28T11:15:32;5.70;1.00
37158;DHT22;23050;51.776;22.638;2023-02-28T11:20:37;7.40;1.00
37158;DHT22;23050;51.776;22.638;2023-02-28T11:23:04;8.10;1.00
37158;DHT22;23050;51.776;22.638;2023-02-28T11:25:32;8.70;1.00
37158;DHT22;23050;51.776;22.638;2023-02-28T11:28:01;9.30;1.00
37158;DHT22;23050;51.776;22.638;2023-02-28T11:30:35;9.40;1.00
37158;DHT22;23050;51.776;22.638;2023-02-28T11:33:28;8.70;1.00
37158;DHT22;23050;51.776;22.638;2023-02-28T11:36:02;8.50;1.00
37158;DHT22;23050;51.776;22.638;2023-02-28T11:38:28;8.80;1.00
37158;DHT22;23050;51.776;22.638;2023-02-28T11:51:35;9.10;1.00
37158;DHT22;23050;51.776;22.638;2023-02-28T11:54:41;9.00;1.00
37158;DHT22;23050;51.776;22.638;2023-02-28T12:05:44;8.90;1.00
37158;DHT22;23050;51.776;22.638;2023-02-28T12:08:29;9.30;1.00
37158;DHT22;23050;51.776;22.638;2023-02-28T12:11:27;9.30;1.00
37158;DHT22;23050;51.776;22.638;2023-02-28T12:17:15;8.60;1.00
37158;DHT22;23050;51.776;22.638;2023-02-28T12:20:01;8.20;1.00
37158;DHT22;23050;51.776;22.638;2023-02-28T12:22:39;8.20;1.00
37158;DHT22;23050;51.776;22.638;2023-02-28T12:28:02;6.90;1.00
37158;DHT22;23050;51.776;22.638;2023-02-28T12:30:34;6.50;1.00
37158;DHT22;23050;51.776;22.638;2023-02-28T12:33:07;6.60;1.00
37158;DHT22;23050;51.776;22.638;2023-02-28T12:35:53;7.50;1.00
37158;DHT22;23050;51.776;22.638;2023-02-28T12:39:00;8.20;1.00
37158;DHT22;23050;51.776;22.638;2023-02-28T12:41:53;8.70;1.00
37158;DHT22;23050;51.776;22.638;2023-02-28T12:44:34;8.70;1.00
37158;DHT22;23050;51.776;22.638;2023-02-28T12:47:05;9.10;1.00
37158;DHT22;23050;51.776;22.638;2023-02-28T12:49:41;9.60;1.00
37158;DHT22;23050;51.776;22.638;2023-02-28T12:52:08;9.50;1.00
37158;DHT22;23050;51.776;22.638;2023-02-28T13:00:08;10.00;1.00
37158;DHT22;23050;51.776;22.638;2023-02-28T13:11:48;10.50;1.00
37158;DHT22;23050;51.776;22.638;2023-02-28T13:14:22;10.40;1.00
37158;DHT22;23050;51.776;22.638;2023-02-28T13:19:20;9.90;1.00
37158;DHT22;23050;51.776;22.638;2023-02-28T13:21:48;9.90;1.00
37158;DHT22;23050;51.776;22.638;2023-02-28T13:29:30;7.50;1.00
37158;DHT22;23050;51.776;22.638;2023-02-28T13:39:49;9.40;1.00
37158;DHT22;23050;51.776;22.638;2023-02-28T13:48:00;10.90;1.00
37158;DHT22;23050;51.776;22.638;2023-02-28T14:05:01;10.30;1.00
37158;DHT22;23050;51.776;22.638;2023-02-28T14:07:30;9.60;1.00
37158;DHT22;23050;51.776;22.638;2023-02-28T14:10:04;8.90;1.00
37158;DHT22;23050;51.776;22.638;2023-02-28T14:12:51;8.60;1.00
37158;DHT22;23050;51.776;22.638;2023-02-28T14:18:21;10.00;1.00
37158;DHT22;23050;51.776;22.638;2023-02-28T14:20:48;10.20;1.00
37158;DHT22;23050;51.776;22.638;2023-02-28T14:26:19;9.40;1.00
37158;DHT22;23050;51.776;22.638;2023-02-28T14:31:58;9.00;1.00
37158;DHT22;23050;51.776;22.638;2023-02-28T14:34:51;8.70;1.00
37158;DHT22;23050;51.776;22.638;2023-02-28T14:37:29;9.00;1.00
37158;DHT22;23050;51.776;22.638;2023-02-28T14:39:57;9.00;1.00
37158;DHT22;23050;51.776;22.638;2023-02-28T14:42:35;8.50;1.00
37158;DHT22;23050;51.776;22.638;2023-02-28T14:45:01;8.70;1.00
37158;DHT22;23050;51.776;22.638;2023-02-28T14:47:30;8.80;1.00
37158;DHT22;23050;51.776;22.638;2023-02-28T14:49:56;9.10;1.00
37158;DHT22;23050;51.776;22.638;2023-02-28T14:52:25;9.10;1.00
37158;DHT22;23050;51.776;22.638;2023-02-28T14:54:54;8.90;1.00
37158;DHT22;23050;51.776;22.638;2023-02-28T14:57:23;9.10;1.00
37158;DHT22;23050;51.776;22.638;2023-02-28T15:00:02;8.80;1.00
37158;DHT22;23050;51.776;22.638;2023-02-28T15:02:33;8.30;1.00
37158;DHT22;23050;51.776;22.638;2023-02-28T15:05:02;8.40;1.00
37158;DHT22;23050;51.776;22.638;2023-02-28T15:07:35;8.40;1.00
37158;DHT22;23050;51.776;22.638;2023-02-28T15:10:36;8.40;1.00
37158;DHT22;23050;51.776;22.638;2023-02-28T15:13:07;8.40;1.00
37158;DHT22;23050;51.776;22.638;2023-02-28T15:15:54;7.70;1.00
37158;DHT22;23050;51.776;22.638;2023-02-28T15:21:19;6.50;1.00
37158;DHT22;23050;51.776;22.638;2023-02-28T15:23:50;6.20;1.00
37158;DHT22;23050;51.776;22.638;2023-02-28T15:26:22;5.90;1.00
37158;DHT22;23050;51.776;22.638;2023-02-28T15:28:51;5.80;1.00
37158;DHT22;23050;51.776;22.638;2023-02-28T15:31:32;5.70;1.00
37158;DHT22;23050;51.776;22.638;2023-02-28T15:34:22;5.60;1.00
37158;DHT22;23050;51.776;22.638;2023-02-28T15:36:48;5.50;1.00
37158;DHT22;23050;51.776;22.638;2023-02-28T15:39:25;5.30;1.00
37158;DHT22;23050;51.776;22.638;2023-02-28T15:42:11;4.90;1.00
37158;DHT22;23050;51.776;22.638;2023-02-28T15:44:37;4.60;1.00
37158;DHT22;23050;51.776;22.638;2023-02-28T15:47:14;4.50;1.00
37158;DHT22;23050;51.776;22.638;2023-02-28T15:49:56;4.10;1.00
37158;DHT22;23050;51.776;22.638;2023-02-28T15:52:41;3.50;1.00
37158;DHT22;23050;51.776;22.638;2023-02-28T15:55:24;3.10;1.00
37158;DHT22;23050;51.776;22.638;2023-02-28T15:57:54;2.70;1.00
37158;DHT22;23050;51.776;22.638;2023-02-28T16:00:22;2.50;1.00
37158;DHT22;23050;51.776;22.638;2023-02-28T16:02:48;2.30;1.00
37158;DHT22;23050;51.776;22.638;2023-02-28T16:05:29;2.10;1.00
37158;DHT22;23050;51.776;22.638;2023-02-28T16:08:12;2.00;1.00
37158;DHT22;23050;51.776;22.638;2023-02-28T16:10:38;1.90;1.00
37158;DHT22;23050;51.776;22.638;2023-02-28T16:13:04;1.70;1.00
37158;DHT22;23050;51.776;22.638;2023-02-28T16:15:35;1.60;1.00
37158;DHT22;23050;51.776;22.638;2023-02-28T16:18:11;1.40;1.00
37158;DHT22;23050;51.776;22.638;2023-02-28T16:20:38;1.30;1.00
37158;DHT22;23050;51.776;22.638;2023-02-28T16:23:03;1.20;1.00
37158;DHT22;23050;51.776;22.638;2023-02-28T16:25:36;1.00;1.00
37158;DHT22;23050;51.776;22.638;2023-02-28T16:28:02;1.00;1.00
37158;DHT22;23050;51.776;22.638;2023-02-28T16:30:29;0.80;1.00
37158;DHT22;23050;51.776;22.638;2023-02-28T16:32:58;0.70;1.00
37158;DHT22;23050;51.776;22.638;2023-02-28T16:35:24;0.60;1.00
37158;DHT22;23050;51.776;22.638;2023-02-28T16:37:52;0.60;1.00
37158;DHT22;23050;51.776;22.638;2023-02-28T16:40:21;0.50;1.00
37158;DHT22;23050;51.776;22.638;2023-02-28T16:42:49;0.40;1.00
37158;DHT22;23050;51.776;22.638;2023-02-28T16:45:24;0.30;1.00
37158;DHT22;23050;51.776;22.638;2023-02-28T16:47:50;0.20;2.30
37158;DHT22;23050;51.776;22.638;2023-02-28T16:50:18;0.10;3.70
37158;DHT22;23050;51.776;22.638;2023-02-28T16:52:44;0.10;11.90
37158;DHT22;23050;51.776;22.638;2023-02-28T16:55:10;0.00;17.80
37158;DHT22;23050;51.776;22.638;2023-02-28T16:57:36;-0.10;25.20
37158;DHT22;23050;51.776;22.638;2023-02-28T17:00:04;-0.10;33.30
37158;DHT22;23050;51.776;22.638;2023-02-28T17:02:30;-0.20;43.70
37158;DHT22;23050;51.776;22.638;2023-02-28T17:04:55;-0.30;52.50
37158;DHT22;23050;51.776;22.638;2023-02-28T17:07:21;-0.30;57.40
37158;DHT22;23050;51.776;22.638;2023-02-28T17:09:46;-0.40;60.50
37158;DHT22;23050;51.776;22.638;2023-02-28T17:12:12;-0.40;66.30
37158;DHT22;23050;51.776;22.638;2023-02-28T17:14:38;-0.40;69.90
37158;DHT22;23050;51.776;22.638;2023-02-28T17:17:06;-0.50;72.70
37158;DHT22;23050;51.776;22.638;2023-02-28T17:19:33;-0.50;75.30
37158;DHT22;23050;51.776;22.638;2023-02-28T17:21:59;-0.60;76.50
37158;DHT22;23050;51.776;22.638;2023-02-28T17:24:25;-0.70;76.90
37158;DHT22;23050;51.776;22.638;2023-02-28T17:26:51;-0.80;78.50
37158;DHT22;23050;51.776;22.638;2023-02-28T17:29:19;-0.90;79.50
37158;DHT22;23050;51.776;22.638;2023-02-28T17:31:45;-0.90;85.20
37158;DHT22;23050;51.776;22.638;2023-02-28T17:34:11;-1.00;89.80
37158;DHT22;23050;51.776;22.638;2023-02-28T17:36:44;-1.00;90.70
37158;DHT22;23050;51.776;22.638;2023-02-28T17:39:11;-1.10;91.30
37158;DHT22;23050;51.776;22.638;2023-02-28T17:41:40;-1.20;91.60
37158;DHT22;23050;51.776;22.638;2023-02-28T17:44:07;-1.20;93.10
37158;DHT22;23050;51.776;22.638;2023-02-28T17:46:33;-1.20;94.10
37158;DHT22;23050;51.776;22.638;2023-02-28T17:48:58;-1.20;95.00
37158;DHT22;23050;51.776;22.638;2023-02-28T17:51:25;-1.20;95.50
37158;DHT22;23050;51.776;22.638;2023-02-28T17:53:50;-1.20;96.80
37158;DHT22;23050;51.776;22.638;2023-02-28T17:56:19;-1.20;97.30
37158;DHT22;23050;51.776;22.638;2023-02-28T17:58:45;-1.20;97.70
37158;DHT22;23050;51.776;22.638;2023-02-28T18:01:11;-1.20;98.30